OIAM  Mahshahr Airport

Add Bookmark

Iran

Status IATA
Operational MRX
Latitude Longitude
30° 33' 22" N 49° 9' 6" E
30.556200 49.151901
Local (DST + 5) UTC (GMT + 4)
Sep 21, 2014 11:37 Sep 21, 2014 20:07
Sunrise-Sunset Local UTC
Begin Civil Twilight 06:35 02:05
Sunrise 07:00 02:30
Sunset 07:12 14:42
End Civil Twilight 07:36 15:06

Current Weather

METAR Observed VFR
OIAM 211900Z 23006KT CAVOK 31/19 Q1004 Sun, Sep 21, 2014 @ 19:00 UTC
(1 Hour, 7 Minutes ago)
Visual Flight Rules
Wind Visibility Clouds Conditions
230° at 6 knots (11 kph) 10 km or more
  • Clear skies
  • No significant weather
Temperatures Readings Precipitation
Current Temp 31°C (88°F)
Dewpoint 19°C (66°F)
Heat Index 33°C (91°F)
Humidity 49%
Altimeter 29.65"Hg
Sea Level Pressure 1004mb
Field Elevation 13.12'
None Recorded

Additional weather within a 92.6km radius of OIAM

Map ICAO Location
OIAG 54.4km E (067°)
OIAA 90.7km W (257°)

24 Hour Weather History

Loading
-

24 Hour Weather Graphs

Loading
-

CheckWX.com is intended as a tool to help pilots better visualize weather data. It is not intended as a substitute for an official weather briefing obtained from a Flight Service Station. CheckWX.com does not meet the FAA requirements for an official pre-flight weather briefing. Therefore, it's important that pilots still call and obtain an official FSS pre-flight weather briefing.